Airfield :
LOGIN :

Register | Disclaimer

   EN    FR    IT 

 










Legend :    VFR   Marginal VFR   IFR   Intensive IFR   Very Intensive IFR
Visi :
Ceiling :
>= 8 km
>= 3000ft
5 to 8 km
1000 to 3000 ft
1500m to 5 km
500 to 1000 ft
800 to 1500m
200 to 500 ft
< 800m
< 200 ft
Symbols :   Thunderstorms  Fog  Heavy snow  Heavy precipitations  Wind > 20 kt
SIGMETs :     Misc.  Thunderstorms  Icing  Turbulence  Mountain Waves  Volcanic Ashes







- Airport Elevation : 1247 ft
- IATA code : PRG


LKPR - Praha Ruzyne

CURRENT METAR :
  • 182300Z 24016KT 9999 BKN036 03/M01 Q1012 NOSIG

EXPIRED METARs :
  • 182230Z 24018KT 9999 BKN040 03/M01 Q1012 NOSIG
  • 182200Z 24020KT 9999 FEW030 03/M01 Q1012 NOSIG
  • 182130Z 24020KT 9999 FEW045 03/M01 Q1012 NOSIG
  • 182100Z 24018KT 9999 BKN045 03/M01 Q1012 NOSIG
  • 182030Z 24020KT 9999 FEW043 03/M01 Q1013 NOSIG
  • 182008Z 23018KT 9999 SCT021 03/M01 Q1013 RMK REG QNH 1011

TAF TAF LKPR
Valid from the 18 at 18:00 until the 20 at 00:00 UTC


181700Z 1818/2000 25016KT 9999 BKN030
TEMPO 1818/1904 26018G30KT
TEMPO 1820/1901 7000 -RASN BKN014
BECMG 1901/1904 SCT030
TEMPO 1912/1920 3000 SHSNRA FEW012TCU BKN014
TEMPO 1913/2000 27020G36KT
TEMPO 1920/2000 4000 SNRA BKN007
No reported NOTAMs for that airfield.



MET'MAP, your aeronautical weather chart ! - Copyright ORBIFLY December 2007 - Disclaimer

ORBIFLY MET'MAP TEAM :

Programming & Development : Alexandra Zaïnal
Concept & Development : Baudouin d'Aumeries
Co-Development & Prog : Marc-Olivier Méhu
Technical & hardware support : Manuel Goepfert

Contact : metmap@orbifly.com




SOURCES & CREDITS :

   NOAA